Time;durP1;ratioP1;P1;durP2;ratioP2;P2;SDS_P1;SDS_P2;PMS_P1;PMS_P2;Temp;Humidity;BMP_temperature;BMP_pressure;BME280_temperature;BME280_humidity;BME280_pressure;Samples;Min_cycle;Max_cycle;Signal;HPM_P1;HPM_P2
2021/12/07 00:01:49;;;;;;;3.77;1.87;;;-3.30;90.00;;;;;;2676698;53;20593;-33
2021/12/07 00:04:16;;;;;;;4.20;1.47;;;-3.40;90.00;;;;;;2676595;53;20063;-35
2021/12/07 00:06:43;;;;;;;1.47;0.70;;;-3.40;89.60;;;;;;2676664;53;20069;-32
2021/12/07 00:09:12;;;;;;;1.83;0.60;;;-3.40;89.90;;;;;;2676344;53;20561;-36
2021/12/07 00:11:39;;;;;;;2.43;0.87;;;-3.40;90.10;;;;;;2676446;53;20066;-32
2021/12/07 00:14:14;;;;;;;3.37;1.67;;;-3.40;89.50;;;;;;2679946;53;20067;-33
2021/12/07 00:16:43;;;;;;;5.60;2.17;;;-3.40;89.30;;;;;;2670936;53;20514;-34
2021/12/07 00:19:11;;;;;;;4.03;1.17;;;-3.40;89.20;;;;;;2671043;53;20063;-33
2021/12/07 00:21:39;;;;;;;2.63;1.23;;;-3.40;89.40;;;;;;2670743;53;20569;-33
2021/12/07 00:24:06;;;;;;;6.57;1.73;;;-3.40;89.30;;;;;;2670681;53;20206;-34
2021/12/07 00:26:33;;;;;;;5.57;2.33;;;-3.40;89.10;;;;;;2666133;53;20204;-32
2021/12/07 00:29:02;;;;;;;5.13;2.57;;;-3.40;89.20;;;;;;2671087;53;20075;-37
2021/12/07 00:31:38;;;;;;;1.13;0.57;;;-3.40;88.90;;;;;;2670381;53;20123;-33
2021/12/07 00:36:34;;;;;;;4.03;0.97;;;-3.40;88.90;;;;;;2680968;53;20063;-34
2021/12/07 00:39:01;;;;;;;1.93;0.80;;;-3.40;89.50;;;;;;2676106;53;20070;-40
2021/12/07 00:41:31;;;;;;;1.90;0.80;;;-3.40;89.40;;;;;;2676588;53;20114;-41
2021/12/07 00:44:02;;;;;;;2.20;0.77;;;-3.30;89.80;;;;;;2676645;53;20070;-33
2021/12/07 00:46:32;;;;;;;2.93;1.00;;;-3.40;88.60;;;;;;2683380;53;20062;-33
2021/12/07 00:49:03;;;;;;;1.93;0.90;;;-3.40;89.10;;;;;;2698699;53;20061;-36
2021/12/07 00:51:32;;;;;;;2.27;0.93;;;-3.40;89.10;;;;;;2698719;53;20529;-33
2021/12/07 00:54:00;;;;;;;3.57;1.20;;;-3.40;89.00;;;;;;2693868;53;20061;-37
2021/12/07 00:56:31;;;;;;;1.67;1.03;;;-3.40;89.00;;;;;;2698814;53;20073;-33
2021/12/07 00:59:00;;;;;;;0.80;0.40;;;-3.40;89.10;;;;;;2698587;53;20126;-33
2021/12/07 01:01:27;;;;;;;1.50;0.60;;;-3.40;89.60;;;;;;2698849;52;20110;-33
2021/12/07 01:03:55;;;;;;;2.17;0.80;;;-3.50;89.30;;;;;;2694020;53;20081;-33
2021/12/07 01:06:44;;;;;;;1.70;0.73;;;-3.50;89.20;;;;;;2693860;53;20073;-35
2021/12/07 01:09:31;;;;;;;1.67;0.60;;;-3.50;89.30;;;;;;2698835;53;20061;-33
2021/12/07 01:25:56;;;;;;;2.13;0.97;;;-3.50;89.50;;;;;;2698957;53;20130;-33
2021/12/07 01:28:33;;;;;;;6.00;1.50;;;-3.40;89.60;;;;;;2698667;53;20065;-37
2021/12/07 01:31:28;;;;;;;4.30;1.97;;;-3.50;89.30;;;;;;2694240;53;20076;-34
2021/12/07 01:34:13;;;;;;;1.90;0.80;;;-3.50;89.50;;;;;;2694612;53;20081;-34
2021/12/07 01:36:48;;;;;;;2.20;1.00;;;-3.50;89.70;;;;;;2702723;53;20069;-34
2021/12/07 01:39:54;;;;;;;4.80;0.80;;;-3.50;89.30;;;;;;2703562;52;20081;-34
2021/12/07 01:45:25;;;;;;;2.67;1.13;;;-3.50;90.10;;;;;;2694584;52;20566;-34
2021/12/07 01:53:13;;;;;;;1.07;0.50;;;-3.50;89.30;;;;;;2692840;53;20054;-33
2021/12/07 02:01:07;;;;;;;3.73;1.50;;;-3.60;89.40;;;;;;2692800;53;20450;-32
2021/12/07 02:03:34;;;;;;;1.90;0.40;;;-3.60;88.90;;;;;;2688077;53;20113;-37
2021/12/07 02:06:01;;;;;;;8.37;1.87;;;-3.70;89.20;;;;;;2697648;53;20128;-34
2021/12/07 02:08:28;;;;;;;3.50;1.63;;;-3.70;89.60;;;;;;2697504;53;20072;-36
2021/12/07 02:10:59;;;;;;;3.47;1.20;;;-3.70;89.70;;;;;;2692774;53;20081;-34
2021/12/07 02:15:59;;;;;;;4.40;2.10;;;-3.70;89.10;;;;;;2692963;53;20065;-33
2021/12/07 02:18:26;;;;;;;1.23;0.63;;;-3.70;89.60;;;;;;2688076;53;20068;-33
2021/12/07 02:20:53;;;;;;;5.50;1.40;;;-3.70;89.20;;;;;;2692465;53;20066;-37
2021/12/07 02:23:20;;;;;;;2.20;1.43;;;-3.70;89.40;;;;;;2697420;53;20069;-33
2021/12/07 02:25:47;;;;;;;2.90;0.93;;;-3.80;88.90;;;;;;2697461;53;20085;-33
2021/12/07 02:28:15;;;;;;;3.63;1.30;;;-3.80;89.50;;;;;;2697424;53;20069;-34
2021/12/07 02:30:44;;;;;;;2.67;1.00;;;-3.80;89.60;;;;;;2697056;53;20086;-35
2021/12/07 02:33:19;;;;;;;1.00;0.80;;;-3.80;89.80;;;;;;2692538;53;20073;-36
2021/12/07 02:35:54;;;;;;;7.30;1.67;;;-3.80;89.60;;;;;;2688139;53;20143;-37
2021/12/07 02:38:21;;;;;;;5.60;1.47;;;-3.80;89.40;;;;;;2697435;53;20062;-36
2021/12/07 02:40:48;;;;;;;3.20;0.70;;;-3.80;89.50;;;;;;2697174;53;20092;-34
2021/12/07 02:43:15;;;;;;;1.27;0.77;;;-3.80;89.30;;;;;;2692773;53;20076;-36
2021/12/07 02:45:42;;;;;;;1.80;0.93;;;-3.80;89.10;;;;;;2697240;53;20069;-34
2021/12/07 02:48:10;;;;;;;4.07;1.27;;;-3.90;89.30;;;;;;2696690;52;20065;-40
2021/12/07 02:50:38;;;;;;;5.30;1.13;;;-3.90;89.30;;;;;;2698288;53;20065;-36
2021/12/07 02:53:07;;;;;;;3.23;1.00;;;-3.90;89.70;;;;;;2698229;53;20073;-35
2021/12/07 02:55:35;;;;;;;7.23;1.13;;;-3.90;89.60;;;;;;2698403;53;20418;-34
2021/12/07 02:58:01;;;;;;;3.20;0.53;;;-3.90;89.50;;;;;;2697985;53;20065;-34
2021/12/07 03:00:37;;;;;;;2.10;0.90;;;-3.90;90.00;;;;;;2698286;53;20061;-33
2021/12/07 03:03:08;;;;;;;2.77;1.03;;;-3.90;89.40;;;;;;2698107;53;20065;-36
2021/12/07 03:27:41;;;;;;;0.47;0.30;;;-3.90;89.10;;;;;;2698129;53;20081;-32
2021/12/07 03:30:08;;;;;;;2.57;1.73;;;-3.90;90.00;;;;;;2697768;53;20072;-44
2021/12/07 03:32:35;;;;;;;3.93;0.60;;;-3.90;89.90;;;;;;2698089;53;20065;-35
2021/12/07 03:35:02;;;;;;;5.50;1.80;;;-3.90;89.60;;;;;;2697942;53;20081;-35
2021/12/07 03:37:29;;;;;;;4.20;1.27;;;-3.90;89.10;;;;;;2702593;53;20065;-35
2021/12/07 03:39:56;;;;;;;4.07;1.50;;;-4.00;89.10;;;;;;2697871;53;20081;-33
2021/12/07 03:42:23;;;;;;;4.70;2.00;;;-4.00;88.60;;;;;;2697935;53;20069;-33
2021/12/07 03:44:50;;;;;;;2.83;1.07;;;-4.10;89.30;;;;;;2698222;53;20071;-35
2021/12/07 03:47:17;;;;;;;1.77;0.70;;;-4.20;88.80;;;;;;2699088;53;20086;-35
2021/12/07 03:49:44;;;;;;;2.00;1.40;;;-4.20;89.30;;;;;;2687838;53;20063;-35
2021/12/07 03:52:11;;;;;;;1.13;0.80;;;-4.30;89.50;;;;;;2687610;53;20078;-34
2021/12/07 03:54:38;;;;;;;4.00;0.90;;;-4.30;89.50;;;;;;2687392;53;20063;-34
2021/12/07 03:57:06;;;;;;;2.17;0.80;;;-4.30;89.70;;;;;;2687379;53;20063;-34
2021/12/07 03:59:33;;;;;;;1.60;0.77;;;-4.40;89.80;;;;;;2687255;53;20074;-34
2021/12/07 04:02:01;;;;;;;0.63;0.30;;;-4.40;90.00;;;;;;2687489;53;20070;-34
2021/12/07 04:04:28;;;;;;;10.03;1.63;;;-4.40;90.10;;;;;;2687473;53;20070;-34
2021/12/07 04:06:58;;;;;;;0.17;0.17;;;-4.40;89.90;;;;;;2687308;53;20504;-35
2021/12/07 04:09:25;;;;;;;7.90;1.50;;;-4.40;89.80;;;;;;2687326;53;20069;-34
2021/12/07 04:11:53;;;;;;;14.37;2.63;;;-4.50;90.00;;;;;;2687359;53;20121;-46
2021/12/07 04:14:21;;;;;;;1.30;0.50;;;-4.50;90.10;;;;;;2687073;53;20066;-34
2021/12/07 04:16:47;;;;;;;4.27;1.70;;;-4.50;90.20;;;;;;2687485;53;20058;-34
2021/12/07 04:19:14;;;;;;;7.47;2.30;;;-4.60;90.30;;;;;;2687330;53;20065;-34
2021/12/07 04:21:41;;;;;;;23.73;5.97;;;-4.60;90.80;;;;;;2682782;53;20066;-35
2021/12/07 04:24:08;;;;;;;18.57;5.23;;;-4.60;91.20;;;;;;2687389;53;20073;-33
2021/12/07 04:26:36;;;;;;;13.50;4.53;;;-4.60;91.50;;;;;;2682594;53;20067;-36
2021/12/07 04:29:03;;;;;;;13.40;5.27;;;-4.70;91.60;;;;;;2687315;53;20062;-37
2021/12/07 04:31:30;;;;;;;23.67;6.97;;;-4.70;91.90;;;;;;2687131;53;20573;-35
2021/12/07 04:33:57;;;;;;;12.87;4.47;;;-4.80;92.10;;;;;;2687078;53;20426;-38
2021/12/07 04:36:24;;;;;;;4.83;2.03;;;-4.90;92.50;;;;;;2685582;53;20067;-35
2021/12/07 04:38:51;;;;;;;7.70;3.00;;;-4.90;92.90;;;;;;2685480;53;20527;-35
2021/12/07 04:41:18;;;;;;;5.77;2.60;;;-5.10;93.30;;;;;;2681040;53;20085;-35
2021/12/07 04:43:48;;;;;;;8.33;3.27;;;-5.10;93.70;;;;;;2680960;53;20071;-33
2021/12/07 04:46:27;;;;;;;9.60;4.83;;;-5.10;93.90;;;;;;2676454;53;20070;-34
2021/12/07 04:59:54;;;;;;;;;;;-5.30;93.60;;;;;;2681566;53;20568;-35
2021/12/07 05:02:22;;;;;;;8.70;2.83;;;-5.40;93.80;;;;;;2685739;53;19922;-34
2021/12/07 05:04:49;;;;;;;10.17;2.57;;;-5.40;94.00;;;;;;2680565;53;20066;-35
2021/12/07 05:07:28;;;;;;;6.33;3.03;;;-5.50;94.20;;;;;;2682338;53;20093;-36
2021/12/07 05:12:35;;;;;;;11.70;3.80;;;-5.60;94.30;;;;;;2686977;53;20131;-42
2021/12/07 05:15:14;;;;;;;8.23;3.63;;;-5.70;94.50;;;;;;2682835;53;20073;-34
2021/12/07 05:39:39;;;;;;;;;;;-5.60;91.80;;;;;;2676369;53;20070;-36
2021/12/07 05:42:06;;;;;;;5.27;1.60;;;-5.60;91.20;;;;;;2680993;53;20337;-34
2021/12/07 05:44:33;;;;;;;18.03;2.53;;;-5.70;90.90;;;;;;2680877;53;20085;-33
2021/12/07 05:47:00;;;;;;;10.67;3.03;;;-5.70;90.80;;;;;;2674265;53;20077;-34
2021/12/07 05:49:27;;;;;;;6.97;2.70;;;-5.70;90.80;;;;;;2677869;53;20617;-33
2021/12/07 05:51:54;;;;;;;7.20;1.70;;;-5.70;90.60;;;;;;2691712;53;20492;-36
2021/12/07 05:54:21;;;;;;;0.77;0.77;;;-5.70;90.90;;;;;;2691950;53;20461;-34
2021/12/07 05:56:48;;;;;;;5.93;1.30;;;-5.70;89.90;;;;;;2686997;53;20204;-33
2021/12/07 05:59:16;;;;;;;8.80;1.60;;;-5.70;89.70;;;;;;2691568;53;20069;-52
2021/12/07 06:01:43;;;;;;;4.40;1.30;;;-5.70;89.50;;;;;;2692845;53;20066;-35
2021/12/07 06:04:10;;;;;;;0.97;0.60;;;-5.70;89.70;;;;;;2692518;53;20487;-34
2021/12/07 06:06:36;;;;;;;16.73;2.50;;;-5.70;90.30;;;;;;2691316;53;20192;-34
2021/12/07 06:09:04;;;;;;;4.63;1.07;;;-5.60;90.60;;;;;;2687062;53;20208;-34
2021/12/07 06:11:30;;;;;;;2.33;1.23;;;-5.50;90.70;;;;;;2687097;53;20069;-34
2021/12/07 06:13:57;;;;;;;2.87;1.30;;;-5.40;90.60;;;;;;2687274;53;20062;-36
2021/12/07 06:16:29;;;;;;;2.33;0.87;;;-5.20;90.60;;;;;;2682457;53;20072;-35
2021/12/07 06:18:57;;;;;;;5.53;1.43;;;-5.20;90.00;;;;;;2682623;53;20062;-34
2021/12/07 06:21:25;;;;;;;0.53;0.30;;;-5.10;90.50;;;;;;2682575;53;20149;-34
2021/12/07 06:23:53;;;;;;;2.53;0.67;;;-5.10;86.90;;;;;;2682366;53;20069;-42
2021/12/07 06:26:20;;;;;;;0.77;0.40;;;-5.10;86.50;;;;;;2691962;53;20666;-34
2021/12/07 06:28:47;;;;;;;4.60;1.20;;;-5.10;85.50;;;;;;2687067;53;20557;-34
2021/12/07 06:31:14;;;;;;;5.73;1.50;;;-5.00;84.40;;;;;;2686766;53;20072;-36
2021/12/07 06:33:41;;;;;;;2.13;1.00;;;-5.00;83.70;;;;;;2687071;53;20069;-34
2021/12/07 06:36:08;;;;;;;6.20;1.87;;;-5.00;83.30;;;;;;2686635;53;20489;-33
2021/12/07 06:38:35;;;;;;;1.33;0.57;;;-5.00;83.10;;;;;;2691414;53;20159;-36
2021/12/07 06:41:03;;;;;;;3.77;0.83;;;-4.90;82.80;;;;;;2687529;53;20406;-35
2021/12/07 06:43:30;;;;;;;8.67;1.53;;;-5.00;83.40;;;;;;2692198;53;20410;-36
2021/12/07 06:45:57;;;;;;;0.70;0.27;;;-4.80;83.10;;;;;;2692528;53;20061;-34
2021/12/07 06:48:24;;;;;;;8.30;2.50;;;-4.90;82.40;;;;;;2691308;53;20070;-35
2021/12/07 06:50:51;;;;;;;2.93;1.50;;;-4.90;84.30;;;;;;2686758;53;20066;-35
2021/12/07 06:53:18;;;;;;;4.43;1.13;;;-4.60;82.10;;;;;;2686883;53;20086;-36
2021/12/07 06:55:45;;;;;;;3.47;1.00;;;-4.40;80.90;;;;;;2686708;53;20515;-36
2021/12/07 06:58:12;;;;;;;8.23;2.70;;;-4.10;80.40;;;;;;2686472;53;20073;-38
2021/12/07 07:00:41;;;;;;;9.10;2.40;;;-4.00;79.40;;;;;;2686696;53;20058;-33
2021/12/07 07:03:08;;;;;;;8.20;2.30;;;-3.70;79.60;;;;;;2686613;53;20066;-31
2021/12/07 07:05:35;;;;;;;12.23;4.10;;;-3.50;77.20;;;;;;2686774;53;20502;-33
2021/12/07 07:08:02;;;;;;;5.97;2.67;;;-3.60;79.70;;;;;;2677271;53;20062;-31
2021/12/07 07:10:29;;;;;;;13.07;3.60;;;-3.50;78.10;;;;;;2682025;53;20062;-34
2021/12/07 07:12:56;;;;;;;15.13;3.67;;;-2.90;76.70;;;;;;2686797;53;20066;-33
2021/12/07 07:15:23;;;;;;;11.17;3.93;;;-2.30;75.20;;;;;;2681851;53;20072;-34
2021/12/07 07:17:51;;;;;;;6.70;3.03;;;-2.10;71.90;;;;;;2686407;53;20078;-47
2021/12/07 07:20:18;;;;;;;3.07;1.07;;;-2.20;72.80;;;;;;2682383;53;20077;-33
2021/12/07 07:22:45;;;;;;;9.53;3.10;;;-2.20;71.20;;;;;;2671806;53;20124;-33
2021/12/07 07:25:12;;;;;;;11.23;2.63;;;-2.30;74.10;;;;;;2676500;53;20446;-32
2021/12/07 07:27:40;;;;;;;15.13;3.87;;;-2.30;73.50;;;;;;2671674;53;20066;-31
2021/12/07 07:30:09;;;;;;;15.77;3.03;;;-2.50;74.00;;;;;;2676536;53;20450;-33
2021/12/07 07:32:36;;;;;;;5.40;3.13;;;-2.50;73.90;;;;;;2681226;53;20118;-35
2021/12/07 07:35:04;;;;;;;6.83;2.80;;;-2.40;72.90;;;;;;2676445;53;20546;-31
2021/12/07 07:37:31;;;;;;;10.60;3.27;;;-2.20;71.90;;;;;;2680981;53;20102;-32
2021/12/07 07:39:58;;;;;;;5.47;2.43;;;-2.00;69.80;;;;;;2676343;53;20584;-34
2021/12/07 07:42:25;;;;;;;20.03;3.37;;;-2.10;69.10;;;;;;2676485;53;20442;-33
2021/12/07 07:44:52;;;;;;;26.80;3.43;;;-2.20;67.90;;;;;;2681282;53;20066;-44
2021/12/07 07:47:19;;;;;;;8.70;2.63;;;-2.30;68.40;;;;;;2685745;53;20074;-32
2021/12/07 07:49:46;;;;;;;4.93;2.07;;;-2.60;66.50;;;;;;2682829;53;20065;-32
2021/12/07 07:52:13;;;;;;;5.87;3.50;;;-2.60;64.70;;;;;;2682398;53;20525;-32
2021/12/07 07:54:40;;;;;;;3.97;1.53;;;-2.50;64.30;;;;;;2687296;53;20076;-34
2021/12/07 07:57:07;;;;;;;7.10;1.90;;;-2.70;65.10;;;;;;2682827;53;20084;-32
2021/12/07 07:59:35;;;;;;;12.57;3.00;;;-3.00;67.10;;;;;;2685157;53;20061;-33
2021/12/07 08:02:03;;;;;;;12.43;2.50;;;-2.70;69.50;;;;;;2694193;53;20065;-33
2021/12/07 08:04:30;;;;;;;11.30;3.00;;;-2.60;67.30;;;;;;2689237;53;20574;-33
2021/12/07 08:06:57;;;;;;;5.17;1.73;;;-2.40;66.90;;;;;;2698831;53;20103;-32
2021/12/07 08:09:24;;;;;;;7.70;1.83;;;-2.00;63.70;;;;;;2689483;53;20130;-35
2021/12/07 08:11:52;;;;;;;7.77;2.10;;;-1.90;63.50;;;;;;2698831;53;20073;-33
2021/12/07 08:14:19;;;;;;;13.17;1.43;;;-2.20;64.80;;;;;;2698493;53;20070;-33
2021/12/07 08:16:46;;;;;;;16.00;2.67;;;-2.20;65.60;;;;;;2698924;52;20061;-34
2021/12/07 08:19:13;;;;;;;10.70;2.03;;;-2.00;65.20;;;;;;2703536;52;20069;-32
2021/12/07 08:21:41;;;;;;;9.43;1.70;;;-1.60;62.70;;;;;;2698729;53;20525;-35
2021/12/07 08:24:08;;;;;;;15.73;2.33;;;-1.80;64.10;;;;;;2698915;53;20067;-32
2021/12/07 08:26:35;;;;;;;7.43;1.60;;;-2.00;64.50;;;;;;2698541;53;20064;-35
2021/12/07 08:29:03;;;;;;;8.93;1.77;;;-1.90;63.60;;;;;;2698589;53;20433;-34
2021/12/07 08:31:30;;;;;;;7.53;1.40;;;-1.80;64.30;;;;;;2698463;53;20061;-34
2021/12/07 08:33:57;;;;;;;12.60;2.13;;;-1.80;64.40;;;;;;2698459;53;20068;-32
2021/12/07 08:36:24;;;;;;;5.93;1.63;;;-2.40;65.70;;;;;;2698863;52;20478;-35
2021/12/07 08:38:51;;;;;;;9.30;1.80;;;-2.10;65.70;;;;;;2698440;53;20082;-32
2021/12/07 08:41:18;;;;;;;7.00;2.13;;;-1.90;65.80;;;;;;2698342;53;20072;-41
2021/12/07 08:43:45;;;;;;;12.27;2.47;;;-1.80;65.30;;;;;;2698624;53;20121;-35
2021/12/07 08:46:13;;;;;;;9.03;2.00;;;-1.90;64.10;;;;;;2703202;53;20126;-35
2021/12/07 08:48:42;;;;;;;16.80;2.83;;;-2.20;64.90;;;;;;2692744;53;20082;-34
2021/12/07 08:51:10;;;;;;;4.83;1.27;;;-2.80;65.50;;;;;;2692767;53;20082;-32
2021/12/07 08:53:44;;;;;;;6.83;1.63;;;-2.70;66.10;;;;;;2692896;53;20066;-34
2021/12/07 09:01:42;;;;;;;13.87;1.57;;;-2.50;67.10;;;;;;2692982;53;20513;-33
2021/12/07 09:04:10;;;;;;;10.53;1.47;;;-2.60;66.80;;;;;;2692638;53;20086;-38
2021/12/07 09:06:38;;;;;;;4.17;1.03;;;-2.60;67.20;;;;;;2688029;53;20138;-34
2021/12/07 09:09:05;;;;;;;1.40;0.50;;;-2.90;67.20;;;;;;2692644;53;20134;-35
2021/12/07 09:11:32;;;;;;;6.53;2.70;;;-3.10;67.00;;;;;;2692577;53;20058;-35
2021/12/07 09:13:58;;;;;;;2.37;1.00;;;-3.10;69.90;;;;;;2688017;53;20137;-35
2021/12/07 09:16:25;;;;;;;6.03;1.87;;;-2.90;67.50;;;;;;2688238;53;20077;-33
2021/12/07 09:18:52;;;;;;;9.93;2.57;;;-3.20;70.30;;;;;;2687560;53;20093;-34
2021/12/07 09:21:19;;;;;;;8.87;2.00;;;-2.70;68.20;;;;;;2692877;53;20129;-33
2021/12/07 09:23:46;;;;;;;5.17;2.17;;;-2.60;67.60;;;;;;2692843;53;20072;-30
2021/12/07 09:26:13;;;;;;;6.53;2.07;;;-2.30;65.80;;;;;;2692515;53;20461;-33
2021/12/07 09:28:41;;;;;;;5.67;2.10;;;-2.60;65.40;;;;;;2692522;53;20069;-33
2021/12/07 09:31:08;;;;;;;10.87;2.13;;;-2.10;62.70;;;;;;2692463;53;20104;-33
2021/12/07 09:33:35;;;;;;;9.67;2.57;;;-1.90;59.90;;;;;;2692637;53;20069;-33
2021/12/07 09:36:03;;;;;;;14.23;2.20;;;-1.60;60.30;;;;;;2692442;53;20065;-34
2021/12/07 09:38:30;;;;;;;10.93;2.93;;;-1.30;56.50;;;;;;2692455;53;20131;-33
2021/12/07 09:40:58;;;;;;;17.70;2.97;;;-1.10;55.10;;;;;;2682640;53;20072;-33
2021/12/07 09:43:25;;;;;;;7.70;1.17;;;-1.10;54.30;;;;;;2682913;53;20066;-33
2021/12/07 09:45:52;;;;;;;12.27;2.20;;;-1.20;53.10;;;;;;2692461;53;20062;-45
2021/12/07 09:48:19;;;;;;;6.93;1.40;;;-1.20;54.70;;;;;;2692482;53;20341;-34
2021/12/07 09:50:49;;;;;;;4.73;2.07;;;-1.60;54.90;;;;;;2698126;53;20073;-33
2021/12/07 09:53:16;;;;;;;6.67;2.60;;;-1.40;56.00;;;;;;2698076;53;20069;-36
2021/12/07 09:55:44;;;;;;;20.80;2.93;;;-1.30;54.80;;;;;;2698353;53;20128;-34
2021/12/07 09:58:11;;;;;;;4.83;1.70;;;-0.90;54.40;;;;;;2697966;53;20545;-33
2021/12/07 10:00:39;;;;;;;8.00;2.37;;;-1.40;54.00;;;;;;2698159;53;20072;-34
2021/12/07 10:03:06;;;;;;;7.63;2.37;;;-1.60;55.50;;;;;;2698354;53;20459;-34
2021/12/07 10:05:35;;;;;;;7.90;2.60;;;-1.40;56.40;;;;;;2698267;53;20061;-33
2021/12/07 10:08:06;;;;;;;34.73;6.73;;;-1.00;55.60;;;;;;2702845;52;20069;-33
2021/12/07 10:10:58;;;;;;;17.40;3.83;;;-0.70;54.80;;;;;;2698373;53;20158;-33
2021/12/07 10:13:27;;;;;;;14.63;3.03;;;-1.10;55.80;;;;;;2698136;53;20525;-34
2021/12/07 10:15:56;;;;;;;16.60;3.33;;;-0.70;55.80;;;;;;2698326;53;20095;-35
2021/12/07 10:18:31;;;;;;;8.00;2.37;;;-0.40;55.80;;;;;;2698191;53;20145;-36
2021/12/07 10:21:03;;;;;;;6.97;2.20;;;-0.20;55.00;;;;;;2698358;53;20065;-51
2021/12/07 10:23:37;;;;;;;5.83;1.80;;;-0.70;56.10;;;;;;2698180;53;20076;-33
2021/12/07 10:26:14;;;;;;;10.60;2.53;;;-1.30;56.20;;;;;;2697957;53;20529;-33
2021/12/07 10:28:44;;;;;;;14.43;3.10;;;-0.60;55.00;;;;;;2697969;53;20092;-34
2021/12/07 10:31:19;;;;;;;11.93;2.27;;;-0.40;51.60;;;;;;2697802;53;20145;-34
2021/12/07 10:34:02;;;;;;;13.30;2.50;;;-0.60;52.10;;;;;;2697863;53;20551;-34
2021/12/07 10:36:35;;;;;;;16.33;3.17;;;-1.10;52.10;;;;;;2693467;53;20579;-33
2021/12/07 10:39:25;;;;;;;11.60;3.30;;;-0.80;53.50;;;;;;2697980;53;20552;-32
2021/12/07 10:42:07;;;;;;;3.83;1.70;;;-0.80;52.50;;;;;;2698115;53;20072;-34
2021/12/07 10:44:39;;;;;;;11.77;3.80;;;-0.80;53.30;;;;;;2697805;53;20525;-33
2021/12/07 10:47:16;;;;;;;7.83;1.60;;;-1.10;53.20;;;;;;2696396;53;20069;-32
2021/12/07 10:49:47;;;;;;;11.73;2.67;;;-0.90;50.10;;;;;;2697050;53;20131;-33
2021/12/07 10:52:32;;;;;;;10.87;3.00;;;-1.20;52.30;;;;;;2687626;53;20128;-33
2021/12/07 10:55:15;;;;;;;;;;;-1.10;51.40;;;;;;2688954;53;20129;-36
2021/12/07 10:57:52;;;;;;;6.80;2.70;;;-1.10;51.60;;;;;;2693076;53;19927;-35
2021/12/07 11:00:36;;;;;;;9.53;2.37;;;-1.30;50.80;;;;;;2688566;53;20058;-32
2021/12/07 11:03:12;;;;;;;9.77;3.37;;;-1.60;51.50;;;;;;2693120;53;20082;-33
2021/12/07 11:05:43;;;;;;;13.47;2.97;;;-1.70;52.00;;;;;;2698050;53;20529;-33
2021/12/07 11:08:10;;;;;;;11.10;2.57;;;-1.70;52.70;;;;;;2688480;53;20124;-47
2021/12/07 11:10:42;;;;;;;21.40;3.47;;;-1.70;52.00;;;;;;2688475;53;20072;-35
2021/12/07 11:13:17;;;;;;;19.97;3.73;;;-2.10;53.20;;;;;;2693472;53;20065;-40
2021/12/07 11:16:05;;;;;;;;;;;-2.30;54.40;;;;;;2693613;53;20469;-38
2021/12/07 11:18:42;;;;;;;20.83;3.63;;;-2.50;55.20;;;;;;2688548;53;19918;-35
2021/12/07 11:21:11;;;;;;;20.77;3.07;;;-2.40;54.60;;;;;;2693342;53;20077;-35
2021/12/07 11:23:42;;;;;;;15.73;3.70;;;-2.50;55.30;;;;;;2693311;53;20077;-33
2021/12/07 11:32:00;;;;;;;11.13;2.57;;;-2.40;54.60;;;;;;2692814;53;20484;-38
2021/12/07 11:34:31;;;;;;;6.90;1.67;;;-2.50;54.80;;;;;;2691808;53;20070;-34
2021/12/07 11:37:12;;;;;;;15.03;2.67;;;-2.50;55.00;;;;;;2693036;53;20070;-35
2021/12/07 11:39:50;;;;;;;7.73;2.60;;;-2.50;54.20;;;;;;2693031;53;20151;-36
2021/12/07 11:42:26;;;;;;;18.00;3.93;;;-2.40;54.10;;;;;;2692982;53;20070;-33
2021/12/07 11:45:03;;;;;;;9.03;2.60;;;-2.60;54.70;;;;;;2688276;53;20061;-34
2021/12/07 11:47:33;;;;;;;6.67;2.20;;;-2.50;54.90;;;;;;2689989;53;20528;-37
2021/12/07 11:50:27;;;;;;;12.00;2.53;;;-2.40;54.30;;;;;;2687306;53;20526;-37
2021/12/07 11:52:58;;;;;;;11.87;2.90;;;-2.40;54.80;;;;;;2675343;53;20560;-39
2021/12/07 11:55:25;;;;;;;13.07;2.47;;;-2.50;55.50;;;;;;2675346;53;20067;-45
2021/12/07 11:57:53;;;;;;;10.83;2.63;;;-2.40;55.80;;;;;;2680279;53;20066;-33
2021/12/07 12:00:34;;;;;;;11.70;2.13;;;-2.30;55.30;;;;;;2680008;53;20086;-33
2021/12/07 12:03:07;;;;;;;8.43;2.20;;;-2.50;56.00;;;;;;2679943;53;20071;-35
2021/12/07 12:05:35;;;;;;;11.27;3.10;;;-2.80;56.50;;;;;;2679686;53;20071;-35
2021/12/07 12:08:07;;;;;;;11.67;3.17;;;-2.70;56.60;;;;;;2680083;53;20153;-34
2021/12/07 12:10:37;;;;;;;16.40;5.07;;;-2.90;56.90;;;;;;2675632;53;20075;-34
2021/12/07 12:13:25;;;;;;;21.33;4.37;;;-3.10;57.40;;;;;;2670712;53;20062;-35
2021/12/07 12:16:11;;;;;;;22.20;2.63;;;-3.00;57.40;;;;;;2675245;53;20122;-34
2021/12/07 12:18:49;;;;;;;;;;;-3.30;57.30;;;;;;2675913;53;20074;-35
2021/12/07 12:21:47;;;;;;;12.10;2.93;;;-3.40;57.60;;;;;;2675384;53;19988;-34
2021/12/07 12:24:35;;;;;;;13.10;2.50;;;-3.30;56.40;;;;;;2676481;53;20075;-37
2021/12/07 12:27:07;;;;;;;11.07;2.30;;;-3.50;57.90;;;;;;2675218;53;20125;-36
2021/12/07 12:29:35;;;;;;;6.27;2.63;;;-3.70;58.80;;;;;;2677450;53;20462;-51
2021/12/07 12:32:02;;;;;;;10.83;2.43;;;-4.10;59.70;;;;;;2687401;53;20070;-37
2021/12/07 12:34:31;;;;;;;11.23;3.27;;;-4.20;60.00;;;;;;2692164;53;20066;-34
2021/12/07 12:37:09;;;;;;;17.83;3.50;;;-4.30;60.70;;;;;;2682618;53;20085;-38
2021/12/07 12:39:50;;;;;;;16.37;4.63;;;-4.20;60.20;;;;;;2692058;53;20077;-37
2021/12/07 12:42:28;;;;;;;6.03;2.93;;;-4.30;60.30;;;;;;2687294;53;20070;-37
2021/12/07 12:45:16;;;;;;;15.03;3.20;;;-4.40;60.90;;;;;;2686929;53;20058;-35
2021/12/07 12:47:43;;;;;;;13.73;2.13;;;-4.40;60.70;;;;;;2690277;53;20456;-36
2021/12/07 12:50:18;;;;;;;7.17;2.07;;;-4.50;60.20;;;;;;2697783;53;20124;-47
2021/12/07 12:52:51;;;;;;;16.65;2.65;;;-4.60;60.20;;;;;;2692867;53;20065;-35
2021/12/07 12:55:29;;;;;;;12.60;2.03;;;-4.70;60.80;;;;;;2692865;53;20576;-36
2021/12/07 12:57:57;;;;;;;10.07;2.60;;;-4.70;61.20;;;;;;2697458;53;20077;-33
2021/12/07 13:00:24;;;;;;;7.00;2.47;;;-4.80;61.50;;;;;;2697349;53;20062;-34
2021/12/07 13:02:54;;;;;;;11.33;1.80;;;-4.80;62.00;;;;;;2692695;53;20097;-34
2021/12/07 13:05:35;;;;;;;10.17;2.00;;;-4.90;62.60;;;;;;2692564;53;20139;-37
2021/12/07 13:08:15;;;;;;;8.23;2.93;;;-5.00;62.70;;;;;;2692897;53;20062;-37
2021/12/07 13:11:01;;;;;;;16.70;3.23;;;-5.10;62.60;;;;;;2692768;53;20149;-36
2021/12/07 13:13:35;;;;;;;18.88;2.63;;;-5.10;63.30;;;;;;2692683;53;20074;-36
2021/12/07 13:16:18;;;;;;;25.45;3.20;;;-5.20;63.40;;;;;;2680806;53;20085;-34
2021/12/07 13:18:45;;;;;;;26.80;3.97;;;-5.30;64.40;;;;;;2671029;53;20136;-36
2021/12/07 13:21:24;;;;;;;12.73;2.70;;;-5.30;64.70;;;;;;2675964;53;20473;-37
2021/12/07 13:24:21;;;;;;;27.73;4.10;;;-5.30;65.40;;;;;;2671122;53;20073;-40
2021/12/07 13:26:52;;;;;;;17.53;4.40;;;-5.40;66.30;;;;;;2672685;53;20089;-34
2021/12/07 13:29:22;;;;;;;18.37;2.53;;;-5.40;66.10;;;;;;2680820;53;20128;-35
2021/12/07 13:31:56;;;;;;;14.83;2.10;;;-5.40;66.50;;;;;;2670981;53;20078;-35
2021/12/07 13:34:33;;;;;;;12.37;2.70;;;-5.40;66.70;;;;;;2676118;53;20570;-36
2021/12/07 13:37:03;;;;;;;17.45;4.07;;;-5.50;67.60;;;;;;2676095;53;20194;-35
2021/12/07 13:39:38;;;;;;;20.77;5.30;;;-5.50;67.80;;;;;;2675839;53;20541;-36
2021/12/07 13:42:21;;;;;;;12.77;2.93;;;-5.60;68.80;;;;;;2671456;53;20070;-36
2021/12/07 13:45:05;;;;;;;11.27;2.10;;;-5.60;70.40;;;;;;2675766;53;20067;-35
2021/12/07 13:47:41;;;;;;;14.27;2.03;;;-5.70;70.50;;;;;;2674941;53;20075;-37
2021/12/07 13:50:12;;;;;;;5.00;1.63;;;-5.70;70.80;;;;;;2675024;53;20186;-38
2021/12/07 13:52:43;;;;;;;8.93;3.10;;;-5.70;71.10;;;;;;2672252;53;20092;-37
2021/12/07 13:55:13;;;;;;;5.67;3.00;;;-5.80;70.40;;;;;;2691765;53;20128;-35
2021/12/07 13:57:41;;;;;;;18.40;2.90;;;-5.80;71.00;;;;;;2681829;53;20073;-34
2021/12/07 14:00:23;;;;;;;16.37;3.73;;;-5.90;71.50;;;;;;2686842;53;21009;-38
2021/12/07 14:02:55;;;;;;;18.33;4.27;;;-5.90;71.90;;;;;;2686873;53;20196;-35
2021/12/07 14:05:31;;;;;;;7.90;2.23;;;-5.90;72.20;;;;;;2687223;53;20097;-37
2021/12/07 14:08:00;;;;;;;10.53;3.97;;;-5.90;72.90;;;;;;2686954;53;20074;-33
2021/12/07 14:10:42;;;;;;;9.03;3.87;;;-6.00;73.70;;;;;;2686447;53;20518;-36
2021/12/07 14:13:09;;;;;;;12.70;3.73;;;-6.00;74.30;;;;;;2681618;53;20077;-35
2021/12/07 14:15:41;;;;;;;5.70;2.17;;;-6.10;75.60;;;;;;2686192;53;20138;-36
2021/12/07 14:18:19;;;;;;;16.50;4.37;;;-6.10;76.60;;;;;;2686257;53;20155;-38
2021/12/07 14:20:58;;;;;;;7.53;2.53;;;-6.20;77.60;;;;;;2691256;53;20059;-36
2021/12/07 14:23:30;;;;;;;12.40;3.87;;;-6.20;78.80;;;;;;2691298;53;20070;-36
2021/12/07 14:26:18;;;;;;;8.00;4.00;;;-6.20;80.20;;;;;;2682093;53;20088;-34
2021/12/07 14:29:02;;;;;;;12.80;4.10;;;-6.30;80.50;;;;;;2686575;53;20070;-34
2021/12/07 14:31:44;;;;;;;9.50;3.60;;;-6.30;81.90;;;;;;2686440;53;20058;-39
2021/12/07 14:34:27;;;;;;;10.00;2.53;;;-6.30;82.70;;;;;;2682191;53;20070;-35
2021/12/07 14:36:57;;;;;;;16.10;3.90;;;-6.30;83.30;;;;;;2686554;53;20125;-34
2021/12/07 14:39:30;;;;;;;11.63;3.13;;;-6.40;84.40;;;;;;2686389;53;20078;-37
2021/12/07 14:42:11;;;;;;;21.43;5.00;;;-6.40;85.30;;;;;;2686748;53;20069;-34
2021/12/07 14:44:43;;;;;;;16.33;5.00;;;-6.30;87.50;;;;;;2686735;53;20096;-35
2021/12/07 14:47:11;;;;;;;12.93;6.17;;;-6.30;87.60;;;;;;2690654;53;20087;-37